createdAt,value
2023-02-11T00:01:42.373Z,33.70
2023-02-11T00:04:10.217Z,28.00
2023-02-11T00:06:44.700Z,30.30
2023-02-11T00:09:12.464Z,32.30
2023-02-11T00:11:40.203Z,35.30
2023-02-11T00:14:08.515Z,33.10
2023-02-11T00:16:42.794Z,32.90
2023-02-11T00:19:10.541Z,33.30
2023-02-11T00:21:38.314Z,32.80
2023-02-11T00:24:06.168Z,34.50
2023-02-11T00:26:34.755Z,34.90
2023-02-11T00:29:03.393Z,34.40
2023-02-11T00:31:32.921Z,37.50
2023-02-11T00:34:01.661Z,34.60
2023-02-11T00:36:29.802Z,37.70
2023-02-11T00:38:58.142Z,37.90
2023-02-11T00:41:26.207Z,39.20
2023-02-11T00:43:54.355Z,39.00
2023-02-11T00:46:22.257Z,38.70
2023-02-11T00:48:51.932Z,37.90
2023-02-11T00:51:22.546Z,38.30
2023-02-11T00:53:50.240Z,37.90
2023-02-11T00:56:17.982Z,39.80
2023-02-11T00:58:45.740Z,37.50
2023-02-11T01:01:13.758Z,39.70
2023-02-11T01:03:44.058Z,36.10
2023-02-11T01:06:11.983Z,42.30
2023-02-11T01:08:40.242Z,32.80
2023-02-11T01:11:17.520Z,38.50
2023-02-11T01:13:47.216Z,39.20
2023-02-11T01:16:17.127Z,41.50
2023-02-11T01:18:53.646Z,37.50
2023-02-11T01:21:25.374Z,34.50
2023-02-11T01:23:53.124Z,41.40
2023-02-11T01:26:20.770Z,42.20
2023-02-11T01:28:48.440Z,38.30
2023-02-11T01:31:16.280Z,36.90
2023-02-11T01:33:43.953Z,39.90
2023-02-11T01:36:21.493Z,37.70
2023-02-11T01:38:50.156Z,33.90
2023-02-11T01:41:21.294Z,40.80
2023-02-11T01:43:50.325Z,41.10
2023-02-11T01:46:37.046Z,38.20
2023-02-11T01:49:09.316Z,40.90
2023-02-11T01:51:37.254Z,35.80
2023-02-11T01:54:25.266Z,35.30
2023-02-11T01:57:13.923Z,42.30
2023-02-11T01:59:56.171Z,38.90
2023-02-11T02:02:26.642Z,40.10
2023-02-11T02:04:57.302Z,41.50
2023-02-11T02:07:38.748Z,39.60
2023-02-11T02:10:13.924Z,40.60
2023-02-11T02:12:45.421Z,39.80
2023-02-11T02:15:22.808Z,40.90
2023-02-11T02:18:13.850Z,39.90
2023-02-11T02:21:00.222Z,37.70
2023-02-11T02:23:40.092Z,40.30
2023-02-11T02:26:20.033Z,40.40
2023-02-11T02:28:47.604Z,38.30
2023-02-11T02:31:23.261Z,41.40
2023-02-11T02:34:17.625Z,37.90
2023-02-11T02:36:51.986Z,37.90
2023-02-11T02:39:29.290Z,32.60
2023-02-11T02:41:57.426Z,35.30
2023-02-11T02:44:25.509Z,37.80
2023-02-11T02:46:53.373Z,32.70
2023-02-11T02:49:21.141Z,37.20
2023-02-11T02:52:10.546Z,36.00
2023-02-11T02:54:44.300Z,35.20
2023-02-11T02:57:18.091Z,36.00
2023-02-11T02:59:54.788Z,33.30
2023-02-11T03:02:47.959Z,36.60
2023-02-11T03:05:27.939Z,33.10
2023-02-11T03:07:55.762Z,31.20
2023-02-11T03:10:34.597Z,35.50
2023-02-11T03:13:03.637Z,34.70
2023-02-11T03:15:33.318Z,35.70
2023-02-11T03:18:01.968Z,28.60
2023-02-11T03:20:30.717Z,33.00
2023-02-11T03:23:02.216Z,34.00
2023-02-11T03:25:31.580Z,34.60
2023-02-11T03:28:02.565Z,33.90
2023-02-11T03:30:32.352Z,28.70
2023-02-11T03:33:03.140Z,33.50
2023-02-11T03:35:34.859Z,32.80
2023-02-11T03:38:06.073Z,30.80
2023-02-11T03:40:38.931Z,29.60
2023-02-11T03:43:13.170Z,34.10
2023-02-11T03:45:41.053Z,33.60
2023-02-11T03:48:14.991Z,34.90
2023-02-11T03:50:51.144Z,33.30
2023-02-11T03:53:19.974Z,33.40
2023-02-11T03:55:49.281Z,35.70
2023-02-11T03:58:17.182Z,32.60
2023-02-11T04:00:48.949Z,26.20
2023-02-11T04:03:16.708Z,32.60
2023-02-11T04:05:44.521Z,32.80
2023-02-11T04:08:16.284Z,33.50
2023-02-11T04:10:44.025Z,30.40
2023-02-11T04:13:11.779Z,36.90
2023-02-11T04:15:39.651Z,29.30
2023-02-11T04:18:07.508Z,33.00
2023-02-11T04:20:35.200Z,30.30
2023-02-11T04:23:03.154Z,31.40
2023-02-11T04:25:30.897Z,34.10
2023-02-11T04:27:58.839Z,32.50
2023-02-11T04:30:26.614Z,35.20
2023-02-11T04:33:00.441Z,33.60
2023-02-11T04:35:28.227Z,29.80
2023-02-11T04:37:56.284Z,36.70
2023-02-11T04:40:24.132Z,37.50
2023-02-11T04:42:52.680Z,36.80
2023-02-11T04:45:20.444Z,31.50
2023-02-11T04:47:48.142Z,37.10
2023-02-11T04:50:16.172Z,38.60
2023-02-11T04:52:44.016Z,40.40
2023-02-11T04:55:11.934Z,33.90
2023-02-11T04:57:39.803Z,37.30
2023-02-11T05:00:08.363Z,39.80
2023-02-11T05:02:36.123Z,38.60
2023-02-11T05:05:04.520Z,36.10
2023-02-11T05:07:32.625Z,38.50
2023-02-11T05:10:00.460Z,35.90
2023-02-11T05:12:28.225Z,36.30
2023-02-11T05:14:55.921Z,40.20
2023-02-11T05:17:23.606Z,36.50
2023-02-11T05:19:51.347Z,38.30
2023-02-11T05:22:19.779Z,41.30
2023-02-11T05:24:47.482Z,39.90
2023-02-11T05:27:15.318Z,41.90
2023-02-11T05:29:43.133Z,40.80
2023-02-11T05:32:10.990Z,41.50
2023-02-11T05:34:38.698Z,40.80
2023-02-11T05:37:06.475Z,37.70
2023-02-11T05:39:34.237Z,45.20
2023-02-11T05:42:01.922Z,40.70
2023-02-11T05:44:29.545Z,44.70
2023-02-11T05:46:57.385Z,46.70
2023-02-11T05:49:25.217Z,44.40
2023-02-11T05:51:52.935Z,39.30
2023-02-11T05:54:27.239Z,42.40
2023-02-11T05:57:01.430Z,46.40
2023-02-11T05:59:36.483Z,41.00
2023-02-11T06:02:08.547Z,43.80
2023-02-11T06:04:37.134Z,44.80
2023-02-11T06:07:11.528Z,48.50
2023-02-11T06:09:43.610Z,46.00
2023-02-11T06:12:11.342Z,49.50
2023-02-11T06:14:39.011Z,47.50
2023-02-11T06:17:06.854Z,46.60
2023-02-11T06:19:34.675Z,49.40
2023-02-11T06:22:02.440Z,43.60
2023-02-11T06:24:51.321Z,52.80
2023-02-11T06:27:19.177Z,46.80
2023-02-11T06:29:47.872Z,43.20
2023-02-11T06:32:36.472Z,47.40
2023-02-11T06:35:03.450Z,49.50
2023-02-11T06:37:31.300Z,45.30
2023-02-11T06:39:59.130Z,44.70
2023-02-11T06:42:26.851Z,48.50
2023-02-11T06:44:54.583Z,50.00
2023-02-11T06:47:22.631Z,51.60
2023-02-11T06:49:50.536Z,49.60
2023-02-11T06:52:18.183Z,54.60
2023-02-11T06:54:46.197Z,51.40
2023-02-11T06:57:13.848Z,48.90
2023-02-11T06:59:41.869Z,40.10
2023-02-11T07:02:10.561Z,52.60
2023-02-11T07:04:38.484Z,41.70
2023-02-11T07:07:06.411Z,51.00
2023-02-11T07:09:34.188Z,51.00
2023-02-11T07:12:02.024Z,51.90
2023-02-11T07:14:29.793Z,47.60
2023-02-11T07:16:58.231Z,49.90
2023-02-11T07:19:26.020Z,41.30
2023-02-11T07:21:54.339Z,45.80
2023-02-11T07:24:21.978Z,48.40
2023-02-11T07:26:50.518Z,48.90
2023-02-11T07:29:18.141Z,49.20
2023-02-11T07:31:46.037Z,42.60
2023-02-11T07:34:14.042Z,49.60
2023-02-11T07:36:43.810Z,55.10
2023-02-11T07:39:11.624Z,59.40
2023-02-11T07:41:39.433Z,46.50
2023-02-11T07:44:08.387Z,47.40
2023-02-11T07:46:58.469Z,50.10
2023-02-11T07:49:33.651Z,42.90
2023-02-11T07:52:02.044Z,49.40
2023-02-11T07:54:30.558Z,47.70
2023-02-11T07:56:59.050Z,52.30
2023-02-11T07:59:27.815Z,49.50
2023-02-11T08:01:58.148Z,50.00
2023-02-11T08:04:32.310Z,47.90
2023-02-11T08:07:01.017Z,51.70
2023-02-11T08:09:29.338Z,40.10
2023-02-11T08:12:00.533Z,48.50
2023-02-11T08:14:29.014Z,45.10
2023-02-11T08:16:56.838Z,40.50
2023-02-11T08:19:24.557Z,46.80
2023-02-11T08:21:54.848Z,43.40
2023-02-11T08:24:22.957Z,49.50
2023-02-11T08:26:53.042Z,36.80
2023-02-11T08:29:22.212Z,41.10
2023-02-11T08:31:50.088Z,49.00
2023-02-11T08:34:22.775Z,49.70
2023-02-11T08:36:51.504Z,50.40
2023-02-11T08:39:21.060Z,49.50
2023-02-11T08:41:51.555Z,47.30
2023-02-11T08:44:20.664Z,52.30
2023-02-11T08:46:49.098Z,45.70
2023-02-11T08:49:17.067Z,48.80
2023-02-11T08:51:45.293Z,48.30
2023-02-11T08:54:13.612Z,44.70
2023-02-11T08:56:43.261Z,51.40
2023-02-11T08:59:13.352Z,53.50
2023-02-11T09:01:41.183Z,48.80
2023-02-11T09:04:10.205Z,44.00
2023-02-11T09:06:37.965Z,44.20
2023-02-11T09:09:13.736Z,73.10
2023-02-11T09:11:42.411Z,60.40
2023-02-11T09:14:16.492Z,46.20
2023-02-11T09:19:11.859Z,50.50
2023-02-11T09:21:40.021Z,72.60
2023-02-11T09:24:08.205Z,68.10
2023-02-11T09:26:38.150Z,66.30
2023-02-11T09:29:06.060Z,54.00
2023-02-11T09:31:34.221Z,48.30
2023-02-11T09:34:04.439Z,48.60
2023-02-11T09:36:34.262Z,45.30
2023-02-11T09:39:02.508Z,41.30
2023-02-11T09:41:30.852Z,44.40
2023-02-11T09:44:02.760Z,39.50
2023-02-11T09:46:32.953Z,31.30
2023-02-11T09:49:02.179Z,45.20
2023-02-11T09:51:32.995Z,43.30
2023-02-11T09:54:05.464Z,43.10
2023-02-11T09:56:33.520Z,41.70
2023-02-11T09:59:01.344Z,34.80
2023-02-11T10:01:29.095Z,43.20
2023-02-11T10:04:15.384Z,43.70
2023-02-11T10:06:54.246Z,39.60
2023-02-11T10:09:31.151Z,39.50
2023-02-11T10:12:17.662Z,39.50
2023-02-11T10:14:54.390Z,41.20
2023-02-11T10:17:22.430Z,41.50
2023-02-11T10:19:59.907Z,35.60
2023-02-11T10:22:41.345Z,38.00
2023-02-11T10:25:29.836Z,44.40
2023-02-11T10:27:59.732Z,36.40
2023-02-11T10:30:36.310Z,40.10
2023-02-11T10:33:05.956Z,42.40
2023-02-11T10:35:33.756Z,44.40
2023-02-11T10:38:01.762Z,41.00
2023-02-11T10:40:30.684Z,47.10
2023-02-11T10:43:00.216Z,41.90
2023-02-11T10:45:30.952Z,41.30
2023-02-11T10:48:01.435Z,43.30
2023-02-11T10:50:30.701Z,38.00
2023-02-11T10:53:20.736Z,47.40
2023-02-11T10:55:53.046Z,38.90
2023-02-11T10:58:26.072Z,41.90
2023-02-11T11:00:55.854Z,42.70
2023-02-11T11:03:25.442Z,36.70
2023-02-11T11:05:58.149Z,41.80
2023-02-11T11:08:46.671Z,42.10
2023-02-11T11:11:18.918Z,44.30
2023-02-11T11:13:52.658Z,39.40
2023-02-11T11:16:23.659Z,38.60
2023-02-11T11:18:53.022Z,43.80
2023-02-11T11:21:40.365Z,40.60
2023-02-11T11:24:19.942Z,40.30
2023-02-11T11:26:49.677Z,43.20
2023-02-11T11:29:19.249Z,40.10
2023-02-11T11:31:49.918Z,41.40
2023-02-11T11:34:32.448Z,41.40
2023-02-11T11:37:01.790Z,37.70
2023-02-11T11:39:34.835Z,43.00
2023-02-11T11:42:26.031Z,35.20
2023-02-11T11:45:05.026Z,42.30
2023-02-11T11:47:35.041Z,39.60
2023-02-11T11:50:07.192Z,31.40
2023-02-11T11:53:04.549Z,36.00
2023-02-11T11:55:39.008Z,38.80
2023-02-11T11:58:10.703Z,55.70
2023-02-11T12:00:41.731Z,42.40
2023-02-11T12:03:21.893Z,35.50
2023-02-11T12:06:04.822Z,37.40
2023-02-11T12:08:50.776Z,35.30
2023-02-11T12:11:22.622Z,31.30
2023-02-11T12:13:58.396Z,36.30
2023-02-11T12:16:29.488Z,37.30
2023-02-11T12:19:16.452Z,32.90
2023-02-11T12:22:03.814Z,34.20
2023-02-11T12:24:47.033Z,29.70
2023-02-11T12:27:35.282Z,30.20
2023-02-11T12:30:15.371Z,30.40
2023-02-11T12:32:57.858Z,29.60
2023-02-11T12:35:29.755Z,26.40
2023-02-11T12:38:18.845Z,28.10
2023-02-11T12:41:01.590Z,27.90
2023-02-11T12:43:41.009Z,22.30
2023-02-11T12:46:35.420Z,24.70
2023-02-11T12:49:15.953Z,25.70
2023-02-11T12:51:46.824Z,27.70
2023-02-11T12:54:14.589Z,22.70
2023-02-11T12:56:45.558Z,22.70
2023-02-11T12:59:17.268Z,25.10
2023-02-11T13:01:45.055Z,24.80
2023-02-11T13:04:16.000Z,19.70
2023-02-11T13:06:46.856Z,21.20
2023-02-11T13:09:19.114Z,23.00
2023-02-11T13:11:52.191Z,21.50
2023-02-11T13:14:26.786Z,22.60
2023-02-11T13:16:55.178Z,23.30
2023-02-11T13:19:23.420Z,20.30
2023-02-11T13:21:59.392Z,20.00
2023-02-11T13:24:27.096Z,21.10
2023-02-11T13:27:18.447Z,22.20
2023-02-11T13:29:47.586Z,18.50
2023-02-11T13:32:22.160Z,21.10
2023-02-11T13:34:53.061Z,18.70
2023-02-11T13:37:22.591Z,21.00
2023-02-11T13:39:58.409Z,21.10
2023-02-11T13:42:26.682Z,20.90
2023-02-11T13:44:55.192Z,19.90
2023-02-11T13:47:31.112Z,22.30
2023-02-11T13:50:00.399Z,25.90
2023-02-11T13:52:34.415Z,24.30
2023-02-11T13:55:14.361Z,19.30
2023-02-11T13:57:42.299Z,20.50
2023-02-11T14:00:29.048Z,19.20
2023-02-11T14:03:31.332Z,19.90
2023-02-11T14:06:38.339Z,20.00
2023-02-11T14:09:12.919Z,18.00
2023-02-11T14:11:40.947Z,18.70
2023-02-11T14:14:16.801Z,17.50
2023-02-11T14:17:05.233Z,16.20
2023-02-11T14:19:33.755Z,15.90
2023-02-11T14:22:29.120Z,15.10
2023-02-11T14:25:01.344Z,14.50
2023-02-11T14:27:38.298Z,15.00
2023-02-11T14:30:29.427Z,14.70
2023-02-11T14:33:03.937Z,15.60
2023-02-11T14:36:10.580Z,16.60
2023-02-11T14:38:48.252Z,13.90
2023-02-11T14:41:19.853Z,13.50
2023-02-11T14:43:49.802Z,13.10
2023-02-11T14:46:18.398Z,15.50
2023-02-11T14:48:47.244Z,14.80
2023-02-11T14:51:25.997Z,14.70
2023-02-11T14:53:57.950Z,14.20
2023-02-11T14:56:30.708Z,14.50
2023-02-11T14:58:59.763Z,12.80
2023-02-11T15:01:32.094Z,13.80
2023-02-11T15:04:01.728Z,15.90
2023-02-11T15:06:33.822Z,17.70
2023-02-11T15:09:14.669Z,14.90
2023-02-11T15:11:44.491Z,11.30
2023-02-11T15:14:19.038Z,11.50
2023-02-11T15:16:47.222Z,12.00
2023-02-11T15:19:23.590Z,12.20
2023-02-11T15:21:52.904Z,11.10
2023-02-11T15:24:26.784Z,11.90
2023-02-11T15:26:58.637Z,12.10
2023-02-11T15:29:27.694Z,10.20
2023-02-11T15:32:06.136Z,12.90
2023-02-11T15:34:57.029Z,13.10
2023-02-11T15:37:26.246Z,11.00
2023-02-11T15:39:54.218Z,12.50
2023-02-11T15:42:26.528Z,12.70
2023-02-11T15:45:11.952Z,10.40
2023-02-11T15:47:42.578Z,11.40
2023-02-11T15:50:19.973Z,11.50
2023-02-11T15:52:48.586Z,12.30
2023-02-11T15:55:17.265Z,10.70
2023-02-11T15:57:46.817Z,12.60
2023-02-11T16:00:18.880Z,18.70
2023-02-11T16:02:47.270Z,15.60
2023-02-11T16:05:24.195Z,11.70
2023-02-11T16:07:52.135Z,12.60
2023-02-11T16:10:34.476Z,11.90
2023-02-11T16:13:08.144Z,12.20
2023-02-11T16:15:45.340Z,13.20
2023-02-11T16:18:31.001Z,11.90
2023-02-11T16:21:02.887Z,13.00
2023-02-11T16:23:42.315Z,12.70
2023-02-11T16:26:32.759Z,12.50
2023-02-11T16:29:10.210Z,11.80
2023-02-11T16:31:39.881Z,12.10
2023-02-11T16:34:13.421Z,12.70
2023-02-11T16:36:41.526Z,11.90
2023-02-11T16:39:09.652Z,13.50
2023-02-11T16:41:58.480Z,13.40
2023-02-11T16:44:33.119Z,13.90
2023-02-11T16:47:09.087Z,14.10
2023-02-11T16:49:43.743Z,15.40
2023-02-11T16:52:16.277Z,13.50
2023-02-11T16:54:44.105Z,12.70
2023-02-11T16:57:16.206Z,14.20
2023-02-11T16:59:48.214Z,14.90
2023-02-11T17:02:25.374Z,14.80
2023-02-11T17:04:54.010Z,13.80
2023-02-11T17:07:22.095Z,15.10
2023-02-11T17:09:50.132Z,14.00
2023-02-11T17:12:18.455Z,10.10
2023-02-11T17:15:07.834Z,14.30
2023-02-11T17:17:35.833Z,13.80
2023-02-11T17:20:04.018Z,14.10
2023-02-11T17:22:31.688Z,13.50
2023-02-11T17:24:59.467Z,15.00
2023-02-11T17:27:27.310Z,14.80
2023-02-11T17:29:55.288Z,14.00
2023-02-11T17:32:23.006Z,15.60
2023-02-11T17:34:52.718Z,12.50
2023-02-11T17:37:24.419Z,12.50
2023-02-11T17:39:52.193Z,13.40
2023-02-11T17:42:20.004Z,14.30
2023-02-11T17:44:47.885Z,12.90
2023-02-11T17:47:16.170Z,12.50
2023-02-11T17:49:44.062Z,14.50
2023-02-11T17:52:11.825Z,12.90
2023-02-11T17:54:39.760Z,13.40
2023-02-11T17:57:07.553Z,14.90
2023-02-11T17:59:35.589Z,13.40
2023-02-11T18:02:03.739Z,12.70
2023-02-11T18:04:38.119Z,14.10
2023-02-11T18:07:09.133Z,15.50
2023-02-11T18:09:40.951Z,14.20
2023-02-11T18:12:09.327Z,13.90
2023-02-11T18:14:40.670Z,14.70
2023-02-11T18:17:09.066Z,17.10
2023-02-11T18:19:37.556Z,17.70
2023-02-11T18:22:05.517Z,16.40
2023-02-11T18:24:33.510Z,13.00
2023-02-11T18:27:01.335Z,11.50
2023-02-11T18:29:29.904Z,19.30
2023-02-11T18:32:01.851Z,25.10
2023-02-11T18:34:29.792Z,22.00
2023-02-11T18:36:57.560Z,28.20
2023-02-11T18:39:26.574Z,36.50
2023-02-11T18:42:02.408Z,22.20
2023-02-11T18:44:30.448Z,20.00
2023-02-11T18:46:59.556Z,15.80
2023-02-11T18:49:28.943Z,17.30
2023-02-11T18:51:58.754Z,15.70
2023-02-11T18:54:26.527Z,15.70
2023-02-11T18:56:54.274Z,12.20
2023-02-11T18:59:22.035Z,11.90
2023-02-11T19:01:51.529Z,10.10
2023-02-11T19:04:20.324Z,9.30
2023-02-11T19:06:49.569Z,12.40
2023-02-11T19:09:18.862Z,9.40
2023-02-11T19:11:54.450Z,10.80
2023-02-11T19:14:27.281Z,7.10
2023-02-11T19:16:56.417Z,7.20
2023-02-11T19:19:25.755Z,7.80
2023-02-11T19:21:54.203Z,9.90
2023-02-11T19:24:23.163Z,5.00
2023-02-11T19:26:52.584Z,10.20
2023-02-11T19:29:22.913Z,10.50
2023-02-11T19:31:51.350Z,11.20
2023-02-11T19:34:41.592Z,23.20
2023-02-11T19:37:13.851Z,13.50
2023-02-11T19:39:43.118Z,17.70
2023-02-11T19:42:18.947Z,10.20
2023-02-11T19:44:48.160Z,8.20
2023-02-11T19:47:19.738Z,9.00
2023-02-11T19:49:52.210Z,11.20
2023-02-11T19:52:40.805Z,8.20
2023-02-11T19:55:08.684Z,6.80
2023-02-11T19:57:37.000Z,7.90
2023-02-11T20:00:05.358Z,6.80
2023-02-11T20:02:40.512Z,5.70
2023-02-11T20:05:09.294Z,5.70
2023-02-11T20:07:37.356Z,5.70
2023-02-11T20:10:05.829Z,5.40
2023-02-11T20:12:33.590Z,6.30
2023-02-11T20:15:01.356Z,3.60
2023-02-11T20:17:29.754Z,3.70
2023-02-11T20:19:57.584Z,4.20
2023-02-11T20:22:25.517Z,3.10
2023-02-11T20:24:53.414Z,2.70
2023-02-11T20:27:21.595Z,4.00
2023-02-11T20:29:50.599Z,3.70
2023-02-11T20:32:18.433Z,4.00
2023-02-11T20:34:52.673Z,5.20
2023-02-11T20:37:20.883Z,5.00
2023-02-11T20:39:50.414Z,4.00
2023-02-11T20:42:18.901Z,2.60
2023-02-11T20:44:47.645Z,3.00
2023-02-11T20:47:19.353Z,3.20
2023-02-11T20:49:48.308Z,2.50
2023-02-11T20:52:17.523Z,2.00
2023-02-11T20:54:46.016Z,1.70
2023-02-11T20:57:13.983Z,4.30
2023-02-11T20:59:43.872Z,3.20
2023-02-11T21:02:13.435Z,5.20
2023-02-11T21:04:41.886Z,9.00
2023-02-11T21:07:09.786Z,5.00
2023-02-11T21:09:39.831Z,8.50
2023-02-11T21:12:08.913Z,6.30
2023-02-11T21:14:36.735Z,7.00
2023-02-11T21:17:13.040Z,7.80
2023-02-11T21:19:41.712Z,4.60
2023-02-11T21:22:09.801Z,6.00
2023-02-11T21:24:38.274Z,5.00
2023-02-11T21:27:06.148Z,4.20
2023-02-11T21:29:36.644Z,4.50
2023-02-11T21:32:08.743Z,5.80
2023-02-11T21:34:56.745Z,4.70
2023-02-11T21:37:24.827Z,5.40
2023-02-11T21:39:52.670Z,5.10
2023-02-11T21:42:20.586Z,5.50
2023-02-11T21:44:48.352Z,6.90
2023-02-11T21:47:16.351Z,5.40
2023-02-11T21:49:44.232Z,8.50
2023-02-11T21:52:12.724Z,7.80
2023-02-11T21:54:40.534Z,7.90
2023-02-11T21:57:08.523Z,6.20
2023-02-11T21:59:36.431Z,7.40
2023-02-11T22:02:04.649Z,4.50
2023-02-11T22:04:33.591Z,5.80
2023-02-11T22:07:03.061Z,5.00
2023-02-11T22:09:30.832Z,5.80
2023-02-11T22:11:58.627Z,6.70
2023-02-11T22:14:26.893Z,7.10
2023-02-11T22:16:54.679Z,5.80
2023-02-11T22:19:24.242Z,5.30
2023-02-11T22:21:52.495Z,7.30
2023-02-11T22:24:21.181Z,6.70
2023-02-11T22:26:50.822Z,6.00
2023-02-11T22:29:19.910Z,6.50
2023-02-11T22:31:47.756Z,9.10
2023-02-11T22:34:15.607Z,11.90
2023-02-11T22:36:45.451Z,9.00
2023-02-11T22:39:16.071Z,7.80
2023-02-11T22:41:45.368Z,7.50
2023-02-11T22:44:21.086Z,8.00
2023-02-11T22:46:55.512Z,9.90
2023-02-11T22:49:23.634Z,7.60
2023-02-11T22:51:58.149Z,9.50
2023-02-11T22:54:30.886Z,9.40
2023-02-11T22:56:58.638Z,7.80
2023-02-11T22:59:26.674Z,6.90
2023-02-11T23:01:54.607Z,7.30
2023-02-11T23:04:22.620Z,6.70
2023-02-11T23:06:50.595Z,6.10
2023-02-11T23:09:18.428Z,6.00
2023-02-11T23:11:48.548Z,5.90
2023-02-11T23:14:16.704Z,5.50
2023-02-11T23:16:45.068Z,5.60
2023-02-11T23:19:12.986Z,7.10
2023-02-11T23:22:00.768Z,6.70
2023-02-11T23:24:29.197Z,7.20
2023-02-11T23:26:57.916Z,7.20
2023-02-11T23:29:32.777Z,6.10
2023-02-11T23:32:00.576Z,4.90
2023-02-11T23:34:28.425Z,4.80
2023-02-11T23:36:57.710Z,4.80
2023-02-11T23:39:25.593Z,5.10
2023-02-11T23:41:58.923Z,6.70
2023-02-11T23:44:27.180Z,12.80
2023-02-11T23:46:54.938Z,10.20
2023-02-11T23:49:22.695Z,8.90
2023-02-11T23:51:50.334Z,12.10
2023-02-11T23:54:18.037Z,6.40
2023-02-11T23:56:46.426Z,5.80
2023-02-11T23:59:14.143Z,4.60
